Time;durP1;ratioP1;P1;durP2;ratioP2;P2;SDS_P1;SDS_P2;PMS_P1;PMS_P2;Temp;Humidity;BMP_temperature;BMP_pressure;BME280_temperature;BME280_humidity;BME280_pressure;Samples;Min_cycle;Max_cycle;Signal;HPM_P1;HPM_P2
2022/04/01 00:02:12;;;;;;;3.87;2.00;;;5.00;47.10;;;;;;602950;235;26589;-62
2022/04/01 00:04:40;;;;;;;3.55;1.70;;;4.80;44.40;;;;;;608724;236;26595;-62
2022/04/01 00:07:08;;;;;;;1.70;1.60;;;4.80;48.70;;;;;;602373;236;26610;-63
2022/04/01 00:09:37;;;;;;;1.55;1.45;;;4.80;48.60;;;;;;607238;236;27308;-62
2022/04/01 00:12:03;;;;;;;1.50;1.45;;;4.80;50.30;;;;;;601920;235;26586;-62
2022/04/01 00:14:30;;;;;;;1.62;1.52;;;4.80;49.90;;;;;;605199;237;26578;-62
2022/04/01 00:16:57;;;;;;;1.80;1.70;;;4.70;51.60;;;;;;607213;236;26895;-62
2022/04/01 00:19:24;;;;;;;1.50;1.40;;;4.80;45.40;;;;;;604699;235;26555;-62
2022/04/01 00:21:52;;;;;;;1.90;1.77;;;4.70;49.50;;;;;;604924;238;26563;-62
2022/04/01 00:24:19;;;;;;;2.20;1.48;;;4.60;51.10;;;;;;608122;236;26579;-62
2022/04/01 00:26:47;;;;;;;1.23;1.23;;;4.60;50.80;;;;;;603497;235;26664;-62
2022/04/01 00:29:15;;;;;;;1.60;1.50;;;4.60;49.70;;;;;;608913;236;26651;-62
2022/04/01 00:31:44;;;;;;;1.50;1.40;;;4.50;46.50;;;;;;607116;235;26870;-62
2022/04/01 00:34:15;;;;;;;1.55;1.50;;;4.50;45.70;;;;;;604117;235;26628;-62
2022/04/01 00:36:43;;;;;;;3.83;1.60;;;4.50;48.70;;;;;;601542;236;26648;-62
2022/04/01 00:39:10;;;;;;;2.45;1.60;;;4.50;46.30;;;;;;608516;235;26637;-63
2022/04/01 00:41:38;;;;;;;1.45;1.35;;;4.50;50.50;;;;;;603418;237;27233;-62
2022/04/01 00:44:12;;;;;;;1.80;1.70;;;4.40;47.50;;;;;;603217;236;26605;-62
2022/04/01 00:46:41;;;;;;;1.40;1.40;;;4.40;50.80;;;;;;604148;234;27429;-62
2022/04/01 00:49:08;;;;;;;1.75;1.33;;;4.40;49.40;;;;;;601992;234;26625;-62
2022/04/01 00:51:37;;;;;;;1.40;1.30;;;4.30;51.50;;;;;;604497;237;26832;-62
2022/04/01 00:54:02;;;;;;;1.50;1.40;;;4.30;48.80;;;;;;608671;236;26638;-63
2022/04/01 00:56:30;;;;;;;1.60;1.50;;;4.30;48.00;;;;;;604327;231;26865;-63
2022/04/01 00:58:57;;;;;;;1.70;1.60;;;4.30;49.70;;;;;;606411;235;26724;-62
2022/04/01 01:01:26;;;;;;;1.73;1.60;;;4.30;48.50;;;;;;609678;235;26586;-62
2022/04/01 01:03:53;;;;;;;1.40;1.40;;;4.30;48.60;;;;;;606814;235;26666;-62
2022/04/01 01:06:22;;;;;;;1.60;1.50;;;4.20;48.60;;;;;;608062;236;26618;-62
2022/04/01 01:08:50;;;;;;;1.48;1.37;;;4.20;48.20;;;;;;603271;236;26597;-62
2022/04/01 01:11:17;;;;;;;1.62;1.52;;;4.30;49.50;;;;;;603339;236;26902;-62
2022/04/01 01:13:45;;;;;;;1.60;1.50;;;4.20;52.60;;;;;;608436;236;26626;-62
2022/04/01 01:16:11;;;;;;;1.50;1.40;;;4.20;51.40;;;;;;605700;234;26882;-62
2022/04/01 01:18:39;;;;;;;1.92;1.50;;;4.00;51.30;;;;;;605476;235;26585;-62
2022/04/01 01:21:09;;;;;;;1.60;1.50;;;4.00;51.30;;;;;;604609;236;26555;-62
2022/04/01 01:23:34;;;;;;;1.60;1.50;;;4.00;48.70;;;;;;607128;234;26638;-62
2022/04/01 01:26:01;;;;;;;1.52;1.42;;;4.10;48.10;;;;;;602043;235;26965;-62
2022/04/01 01:28:28;;;;;;;6.05;2.00;;;4.10;50.70;;;;;;608710;235;26647;-62
2022/04/01 01:30:55;;;;;;;1.40;1.40;;;4.10;50.90;;;;;;602925;237;27109;-62
2022/04/01 01:33:23;;;;;;;1.65;1.55;;;4.10;47.20;;;;;;602674;238;26602;-62
2022/04/01 01:35:51;;;;;;;1.40;1.30;;;4.00;46.90;;;;;;603735;238;27327;-62
2022/04/01 01:38:19;;;;;;;1.70;1.60;;;4.00;50.80;;;;;;603689;235;26611;-62
2022/04/01 01:40:47;;;;;;;1.50;1.40;;;4.00;47.90;;;;;;604265;237;26587;-62
2022/04/01 01:43:14;;;;;;;1.23;1.23;;;4.00;47.90;;;;;;602871;238;26593;-62
2022/04/01 01:45:41;;;;;;;1.37;1.27;;;4.00;50.70;;;;;;603674;238;26609;-63
2022/04/01 01:48:08;;;;;;;1.55;1.45;;;3.90;49.40;;;;;;608641;236;26863;-62
2022/04/01 01:55:41;;;;;;;1.52;1.42;;;3.80;52.20;;;;;;606674;234;26591;-62
2022/04/01 01:58:09;;;;;;;1.40;1.30;;;3.70;48.50;;;;;;601760;238;27306;-62
2022/04/01 02:00:36;;;;;;;1.37;1.37;;;3.70;53.30;;;;;;603637;236;26624;-62
2022/04/01 02:03:05;;;;;;;1.45;1.35;;;3.80;47.80;;;;;;609725;236;26579;-62
2022/04/01 02:05:31;;;;;;;1.30;1.30;;;3.70;47.70;;;;;;604232;235;26803;-62
2022/04/01 02:08:00;;;;;;;1.40;1.30;;;3.70;48.70;;;;;;605465;232;26588;-62
2022/04/01 02:10:26;;;;;;;1.60;1.50;;;3.60;49.60;;;;;;603100;237;26908;-62
2022/04/01 02:12:53;;;;;;;1.42;1.40;;;3.60;50.90;;;;;;604253;236;26602;-63
2022/04/01 02:15:20;;;;;;;1.60;1.50;;;3.60;52.20;;;;;;603356;234;26579;-63
2022/04/01 02:17:49;;;;;;;1.50;1.40;;;3.60;50.40;;;;;;608589;236;26587;-63
2022/04/01 02:20:16;;;;;;;1.27;1.25;;;3.60;51.60;;;;;;609627;236;26592;-63
2022/04/01 02:22:44;;;;;;;1.60;1.50;;;3.60;51.20;;;;;;606717;236;26900;-63
2022/04/01 02:25:11;;;;;;;1.58;1.48;;;3.60;50.40;;;;;;607500;236;26617;-63
2022/04/01 02:27:39;;;;;;;1.40;1.30;;;3.50;50.50;;;;;;605376;235;26582;-63
2022/04/01 02:30:10;;;;;;;1.55;1.45;;;3.40;49.90;;;;;;603312;235;26597;-63
2022/04/01 02:32:38;;;;;;;2.12;1.58;;;3.40;49.90;;;;;;610976;234;26589;-63
2022/04/01 02:35:05;;;;;;;1.40;1.30;;;3.50;52.10;;;;;;606596;235;26576;-63
2022/04/01 02:37:32;;;;;;;1.77;1.67;;;3.40;53.90;;;;;;604923;234;26592;-63
2022/04/01 02:40:00;;;;;;;1.40;1.37;;;3.30;50.50;;;;;;604906;235;26583;-63
2022/04/01 02:42:27;;;;;;;1.48;1.37;;;3.30;50.40;;;;;;607094;235;26575;-63
2022/04/01 02:44:56;;;;;;;1.27;1.27;;;3.30;51.70;;;;;;608793;231;26626;-63
2022/04/01 02:47:22;;;;;;;1.98;1.40;;;3.40;50.20;;;;;;602032;236;26933;-63
2022/04/01 02:49:49;;;;;;;1.40;1.30;;;3.30;52.70;;;;;;607796;236;26585;-63
2022/04/01 02:52:16;;;;;;;2.35;1.48;;;3.20;49.30;;;;;;603799;235;26651;-62
2022/04/01 02:54:43;;;;;;;4.47;1.40;;;3.20;49.40;;;;;;604435;238;26586;-62
2022/04/01 02:57:10;;;;;;;36.55;8.07;;;3.20;49.50;;;;;;603188;236;27137;-62
2022/04/01 02:59:38;;;;;;;84.35;14.20;;;3.20;53.50;;;;;;601440;238;26672;-63
2022/04/01 03:02:05;;;;;;;67.68;13.20;;;3.20;52.70;;;;;;603985;237;27171;-62
2022/04/01 03:04:32;;;;;;;77.53;12.40;;;3.10;50.80;;;;;;604694;236;26626;-62
2022/04/01 03:07:01;;;;;;;67.07;11.77;;;3.20;52.80;;;;;;604125;234;26605;-61
2022/04/01 03:09:28;;;;;;;66.70;11.25;;;3.10;52.60;;;;;;608746;236;26605;-62
2022/04/01 03:11:56;;;;;;;51.03;11.70;;;3.10;52.60;;;;;;602321;235;26623;-62
2022/04/01 03:14:22;;;;;;;53.55;10.27;;;3.10;53.50;;;;;;602782;236;26641;-62
2022/04/01 03:16:49;;;;;;;47.30;11.02;;;3.10;56.00;;;;;;603598;236;26659;-62
2022/04/01 03:19:16;;;;;;;48.03;10.05;;;3.00;53.20;;;;;;605849;233;26605;-62
2022/04/01 03:21:45;;;;;;;31.15;7.18;;;3.00;51.90;;;;;;609785;235;26585;-62
2022/04/01 03:24:11;;;;;;;22.40;6.18;;;3.00;55.20;;;;;;603080;234;26916;-62
2022/04/01 03:26:38;;;;;;;22.02;6.50;;;3.00;52.00;;;;;;604409;235;26615;-62
2022/04/01 03:29:07;;;;;;;29.20;6.37;;;3.10;56.90;;;;;;606482;236;26616;-62
2022/04/01 03:31:36;;;;;;;19.92;5.32;;;3.00;52.20;;;;;;602965;232;26579;-62
2022/04/01 03:34:03;;;;;;;23.33;5.43;;;2.90;52.20;;;;;;609050;236;26837;-62
2022/04/01 03:36:30;;;;;;;14.65;5.62;;;2.90;51.60;;;;;;603237;236;26605;-62
2022/04/01 03:38:57;;;;;;;21.58;6.07;;;2.90;57.70;;;;;;604729;234;26594;-62
2022/04/01 03:41:25;;;;;;;24.55;5.03;;;2.90;57.10;;;;;;602924;237;26586;-62
2022/04/01 03:43:54;;;;;;;19.83;5.53;;;2.90;56.30;;;;;;609869;235;26588;-61
2022/04/01 03:46:21;;;;;;;20.65;5.25;;;2.90;55.40;;;;;;603504;234;26589;-62
2022/04/01 03:48:49;;;;;;;21.55;5.18;;;2.90;55.30;;;;;;609081;234;26550;-62
2022/04/01 03:51:19;;;;;;;18.95;4.62;;;2.80;56.30;;;;;;605485;236;26585;-62
2022/04/01 03:53:47;;;;;;;23.58;5.80;;;2.70;54.30;;;;;;603873;236;26615;-61
2022/04/01 03:56:14;;;;;;;19.77;4.28;;;2.70;55.40;;;;;;603743;236;26615;-62
2022/04/01 03:58:41;;;;;;;14.43;4.62;;;2.80;53.70;;;;;;607556;235;26581;-62
2022/04/01 04:01:10;;;;;;;21.87;4.72;;;2.70;54.40;;;;;;600923;239;26865;-62
2022/04/01 04:03:36;;;;;;;17.67;4.30;;;2.70;54.50;;;;;;606665;236;26589;-62
2022/04/01 04:06:03;;;;;;;13.43;5.10;;;2.70;55.50;;;;;;605317;236;26831;-62
2022/04/01 04:08:30;;;;;;;17.60;4.07;;;2.60;57.60;;;;;;603113;236;26640;-62
2022/04/01 04:10:57;;;;;;;14.63;4.05;;;2.60;51.50;;;;;;609756;236;27253;-62
2022/04/01 04:13:25;;;;;;;13.13;4.05;;;2.60;52.50;;;;;;605103;235;26596;-62
2022/04/01 04:15:57;;;;;;;14.20;4.18;;;2.60;57.90;;;;;;601400;239;26657;-62
2022/04/01 04:18:24;;;;;;;14.70;4.10;;;2.50;57.50;;;;;;609202;236;26909;-62
2022/04/01 04:20:58;;;;;;;19.17;4.72;;;2.60;55.60;;;;;;611040;235;26556;-62
2022/04/01 04:23:26;;;;;;;10.98;4.03;;;2.60;56.20;;;;;;607599;235;26606;-62
2022/04/01 04:26:01;;;;;;;12.60;3.90;;;2.60;50.20;;;;;;604357;237;26839;-62
2022/04/01 04:28:28;;;;;;;8.88;3.58;;;2.60;50.30;;;;;;601507;238;26586;-62
2022/04/01 04:30:56;;;;;;;14.20;4.93;;;2.60;56.60;;;;;;605799;235;26994;-62
2022/04/01 04:33:23;;;;;;;12.73;4.05;;;2.60;58.20;;;;;;605558;235;26674;-62
2022/04/01 04:35:50;;;;;;;14.32;3.85;;;2.60;53.90;;;;;;602944;237;26880;-62
2022/04/01 04:38:20;;;;;;;9.68;3.60;;;2.60;54.60;;;;;;602583;237;26611;-62
2022/04/01 04:40:46;;;;;;;13.85;3.72;;;2.50;53.60;;;;;;604107;238;26638;-62
2022/04/01 04:43:18;;;;;;;13.95;3.42;;;2.50;51.80;;;;;;602124;237;26554;-62
2022/04/01 04:45:42;;;;;;;13.50;3.87;;;2.50;51.70;;;;;;601878;239;27187;-62
2022/04/01 04:48:09;;;;;;;7.82;3.62;;;2.40;56.30;;;;;;608901;236;26589;-62
2022/04/01 04:50:36;;;;;;;11.60;4.03;;;2.50;56.30;;;;;;601828;237;26590;-63
2022/04/01 04:53:04;;;;;;;9.48;3.37;;;2.50;52.60;;;;;;605358;236;26572;-62
2022/04/01 04:55:34;;;;;;;10.75;3.72;;;2.50;56.20;;;;;;604916;235;26579;-62
2022/04/01 04:57:59;;;;;;;9.60;3.40;;;2.50;57.10;;;;;;604145;238;26582;-62
2022/04/01 05:00:27;;;;;;;9.45;3.25;;;2.50;54.80;;;;;;612113;235;26597;-62
2022/04/01 05:03:08;;;;;;;7.28;3.10;;;2.50;52.60;;;;;;607097;235;26890;-62
2022/04/01 05:05:38;;;;;;;9.85;3.40;;;2.50;56.30;;;;;;603550;238;26626;-62
2022/04/01 05:08:05;;;;;;;6.68;3.10;;;2.50;56.20;;;;;;604454;237;26820;-62
2022/04/01 05:10:36;;;;;;;11.25;3.33;;;2.50;53.60;;;;;;602845;236;27257;-62
2022/04/01 05:13:10;;;;;;;11.57;3.17;;;2.50;51.90;;;;;;606148;235;26863;-62
2022/04/01 05:15:40;;;;;;;11.35;2.75;;;2.60;55.70;;;;;;607221;234;26634;-62
2022/04/01 05:18:09;;;;;;;10.30;3.25;;;2.50;55.50;;;;;;602020;238;26607;-62
2022/04/01 05:20:38;;;;;;;7.85;2.95;;;2.60;56.30;;;;;;604239;235;26563;-62
2022/04/01 05:23:06;;;;;;;6.78;2.85;;;2.60;55.30;;;;;;606211;235;26891;-62
2022/04/01 05:25:33;;;;;;;9.63;3.00;;;2.60;58.60;;;;;;607535;234;26594;-62
2022/04/01 05:28:00;;;;;;;9.93;3.40;;;2.50;55.60;;;;;;601986;237;26766;-62
2022/04/01 05:30:29;;;;;;;6.57;3.05;;;2.50;55.70;;;;;;602326;232;26595;-61
2022/04/01 05:32:58;;;;;;;7.90;2.97;;;2.50;55.00;;;;;;602938;232;26606;-61
2022/04/01 05:35:26;;;;;;;11.23;3.15;;;2.60;56.40;;;;;;603172;238;26656;-62
2022/04/01 05:37:54;;;;;;;7.72;3.17;;;2.50;54.40;;;;;;601860;237;26561;-61
2022/04/01 05:40:22;;;;;;;10.15;3.15;;;2.60;58.30;;;;;;609171;236;26561;-61
2022/04/01 05:42:50;;;;;;;6.60;3.00;;;2.60;58.10;;;;;;605351;232;26577;-62
2022/04/01 05:45:17;;;;;;;5.57;2.58;;;2.60;53.00;;;;;;604116;237;26614;-62
2022/04/01 05:47:44;;;;;;;6.57;2.62;;;2.60;61.50;;;;;;603240;231;26836;-62
2022/04/01 05:50:12;;;;;;;6.20;2.37;;;2.70;54.30;;;;;;602404;238;26645;-62
2022/04/01 05:52:40;;;;;;;7.75;3.20;;;2.70;54.30;;;;;;604328;237;26668;-62
2022/04/01 05:55:11;;;;;;;5.57;2.40;;;2.70;57.70;;;;;;606737;233;26650;-62
2022/04/01 05:57:34;;;;;;;4.35;2.90;;;2.70;58.90;;;;;;605624;235;26813;-62
2022/04/01 06:00:01;;;;;;;4.55;2.70;;;2.70;56.50;;;;;;610781;235;26604;-61
2022/04/01 06:02:41;;;;;;;6.68;2.80;;;2.80;57.20;;;;;;601246;239;26857;-61
2022/04/01 06:05:17;;;;;;;4.43;2.75;;;2.80;57.30;;;;;;601640;239;26602;-62
2022/04/01 06:07:51;;;;;;;6.60;2.60;;;2.70;57.20;;;;;;603831;235;26825;-62
2022/04/01 06:10:24;;;;;;;5.60;2.37;;;2.80;57.00;;;;;;606306;233;26817;-62
2022/04/01 06:12:57;;;;;;;4.60;2.20;;;2.90;54.00;;;;;;603800;236;26603;-62
2022/04/01 06:15:27;;;;;;;5.10;2.80;;;2.90;55.30;;;;;;604276;236;26611;-62
2022/04/01 06:18:09;;;;;;;6.60;2.78;;;3.00;55.00;;;;;;607382;233;26641;-62
2022/04/01 06:20:37;;;;;;;6.00;2.28;;;3.00;54.70;;;;;;605211;235;26637;-62
2022/04/01 06:23:07;;;;;;;5.25;2.80;;;3.00;55.00;;;;;;604613;235;26621;-61
2022/04/01 06:25:35;;;;;;;7.20;2.83;;;3.00;56.90;;;;;;602945;235;26650;-61
2022/04/01 06:28:09;;;;;;;4.32;2.33;;;3.20;54.10;;;;;;604705;236;26656;-61
2022/04/01 06:30:36;;;;;;;3.15;2.10;;;3.10;58.70;;;;;;604901;235;26636;-61
2022/04/01 06:33:18;;;;;;;2.15;1.95;;;3.30;53.20;;;;;;604630;233;26687;-61
2022/04/01 06:35:45;;;;;;;3.20;1.80;;;3.30;53.10;;;;;;606466;234;26654;-62
2022/04/01 06:38:13;;;;;;;5.57;2.45;;;3.40;55.10;;;;;;603856;235;26651;-61
2022/04/01 06:40:42;;;;;;;2.17;1.80;;;3.60;54.00;;;;;;602868;235;26586;-61
2022/04/01 06:43:09;;;;;;;4.35;2.50;;;3.60;56.70;;;;;;605802;234;26828;-62
2022/04/01 06:45:36;;;;;;;3.45;2.15;;;3.70;56.60;;;;;;604906;236;26640;-62
2022/04/01 06:48:05;;;;;;;2.53;1.85;;;3.70;59.60;;;;;;605453;236;26888;-62
2022/04/01 06:50:31;;;;;;;2.42;1.90;;;3.60;57.40;;;;;;605771;234;26608;-62
2022/04/01 06:52:59;;;;;;;5.80;2.25;;;3.70;56.50;;;;;;605683;235;26847;-62
2022/04/01 06:55:26;;;;;;;2.30;1.73;;;3.70;56.90;;;;;;607699;234;26613;-62
2022/04/01 06:57:53;;;;;;;2.90;1.95;;;3.70;51.20;;;;;;607311;234;26615;-62
2022/04/01 07:00:21;;;;;;;2.22;2.03;;;3.80;57.00;;;;;;605037;235;26644;-62
2022/04/01 07:02:49;;;;;;;2.95;1.95;;;3.80;58.20;;;;;;604526;235;26606;-62
2022/04/01 07:05:15;;;;;;;5.97;2.30;;;3.90;52.50;;;;;;606234;236;26585;-62
2022/04/01 07:07:43;;;;;;;2.45;2.15;;;3.90;50.70;;;;;;608051;235;26891;-62
2022/04/01 07:10:11;;;;;;;2.55;2.03;;;4.00;53.50;;;;;;607465;235;26576;-62
2022/04/01 07:12:39;;;;;;;4.37;2.33;;;4.00;54.40;;;;;;605200;234;26578;-61
2022/04/01 07:15:08;;;;;;;3.45;2.30;;;4.00;54.90;;;;;;605550;236;26606;-62
2022/04/01 07:17:34;;;;;;;2.72;1.92;;;4.00;54.00;;;;;;602672;235;26586;-62
2022/04/01 07:20:02;;;;;;;2.65;1.87;;;4.00;55.90;;;;;;603804;232;27283;-62
2022/04/01 07:22:29;;;;;;;5.60;2.28;;;4.10;55.20;;;;;;603728;235;26593;-61
2022/04/01 07:24:57;;;;;;;4.65;1.90;;;4.20;55.40;;;;;;605058;236;26823;-62
2022/04/01 07:27:24;;;;;;;2.20;2.00;;;4.30;56.00;;;;;;604613;235;26574;-62
2022/04/01 07:29:51;;;;;;;2.70;2.17;;;4.40;54.20;;;;;;608238;235;26852;-62
2022/04/01 07:34:53;;;;;;;65.82;10.82;;;4.70;49.60;;;;;;605246;236;26592;-63
2022/04/01 07:37:23;;;;;;;32.33;8.00;;;4.80;54.30;;;;;;601592;237;26670;-61
2022/04/01 07:39:48;;;;;;;75.12;10.15;;;4.80;54.40;;;;;;601313;238;26636;-62
2022/04/01 07:42:15;;;;;;;415.67;39.75;;;4.80;53.70;;;;;;601538;239;26644;-63
2022/04/01 07:44:42;;;;;;;48.33;11.25;;;5.00;54.80;;;;;;602804;236;26678;-64
2022/04/01 07:47:09;;;;;;;17.60;6.40;;;5.20;53.70;;;;;;604317;236;26630;-64
2022/04/01 07:49:37;;;;;;;13.70;4.87;;;5.20;57.30;;;;;;604137;237;26807;-65
2022/04/01 07:52:08;;;;;;;6.35;2.70;;;5.30;52.30;;;;;;604568;236;26582;-64
2022/04/01 07:54:34;;;;;;;7.12;2.45;;;5.40;54.40;;;;;;603241;237;26585;-64
2022/04/01 07:57:01;;;;;;;11.57;3.40;;;5.50;55.30;;;;;;606888;236;26589;-64
2022/04/01 07:59:30;;;;;;;32.42;8.13;;;5.60;52.50;;;;;;605855;236;26570;-64
2022/04/01 08:01:58;;;;;;;25.58;6.87;;;5.80;50.00;;;;;;604655;238;26587;-64
2022/04/01 08:04:27;;;;;;;27.45;8.73;;;5.70;52.40;;;;;;609038;233;26637;-63
2022/04/01 08:06:54;;;;;;;11.27;4.82;;;5.60;51.70;;;;;;611209;235;26630;-64
2022/04/01 08:09:23;;;;;;;18.42;6.95;;;5.90;46.80;;;;;;612844;234;26579;-64
2022/04/01 08:11:50;;;;;;;23.42;7.15;;;5.90;47.20;;;;;;602870;234;26581;-64
2022/04/01 08:14:18;;;;;;;9.95;3.67;;;6.00;46.80;;;;;;607013;235;26601;-63
2022/04/01 08:16:45;;;;;;;2.17;1.60;;;6.00;46.70;;;;;;603594;237;26648;-63
2022/04/01 08:19:12;;;;;;;1.77;1.67;;;6.10;48.00;;;;;;609190;236;26557;-64
2022/04/01 08:21:40;;;;;;;5.85;3.12;;;6.00;51.50;;;;;;610165;235;26822;-63
2022/04/01 08:24:08;;;;;;;3.30;2.35;;;6.00;49.60;;;;;;605392;236;26567;-63
2022/04/01 08:26:35;;;;;;;3.12;2.45;;;6.10;50.90;;;;;;607194;235;26616;-64
2022/04/01 08:29:03;;;;;;;4.12;2.78;;;6.30;50.30;;;;;;605400;236;26607;-64
2022/04/01 08:31:33;;;;;;;4.00;2.60;;;6.30;49.90;;;;;;604246;236;26585;-64
2022/04/01 08:33:58;;;;;;;3.05;1.80;;;6.20;50.10;;;;;;604108;235;26848;-63
2022/04/01 08:36:26;;;;;;;5.82;2.72;;;6.20;49.80;;;;;;604336;236;26604;-63
2022/04/01 08:38:52;;;;;;;2.30;1.62;;;6.50;50.10;;;;;;601821;237;26813;-64
2022/04/01 08:41:20;;;;;;;3.20;1.70;;;6.80;51.70;;;;;;603317;236;26640;-64
2022/04/01 08:43:48;;;;;;;1.83;1.73;;;6.90;46.00;;;;;;601591;238;26646;-63
2022/04/01 08:46:15;;;;;;;2.03;1.50;;;6.90;45.90;;;;;;603554;238;26640;-63
2022/04/01 08:48:43;;;;;;;3.85;2.35;;;7.00;50.00;;;;;;601417;237;26637;-62
2022/04/01 08:51:10;;;;;;;2.08;1.90;;;7.30;49.00;;;;;;603427;238;27245;-63
2022/04/01 08:53:40;;;;;;;3.87;2.47;;;7.30;48.90;;;;;;602058;237;27388;-63
2022/04/01 08:56:06;;;;;;;3.30;1.80;;;7.20;47.60;;;;;;603791;238;26614;-63
2022/04/01 08:58:34;;;;;;;2.03;1.83;;;7.20;48.50;;;;;;605503;236;26636;-63
2022/04/01 09:01:01;;;;;;;4.75;2.30;;;7.30;46.30;;;;;;605800;235;26613;-63
2022/04/01 09:03:28;;;;;;;2.58;2.20;;;7.30;42.50;;;;;;604622;237;26937;-64
2022/04/01 09:05:55;;;;;;;2.45;2.22;;;7.20;44.20;;;;;;604303;234;26606;-64
2022/04/01 09:08:23;;;;;;;2.03;1.67;;;7.10;40.20;;;;;;607238;235;26734;-63
2022/04/01 09:10:57;;;;;;;1.95;1.70;;;7.30;43.00;;;;;;608168;234;26638;-64
2022/04/01 09:13:26;;;;;;;2.15;1.80;;;7.30;42.80;;;;;;603801;238;26590;-64
2022/04/01 09:15:53;;;;;;;2.65;2.22;;;7.40;51.40;;;;;;604038;233;26896;-64
2022/04/01 09:18:33;;;;;;;2.12;1.92;;;7.70;46.40;;;;;;602819;235;26654;-63
2022/04/01 09:21:01;;;;;;;2.62;2.42;;;7.70;47.20;;;;;;602573;237;26590;-63
2022/04/01 09:23:29;;;;;;;3.78;2.70;;;7.60;45.80;;;;;;607808;235;26596;-63
2022/04/01 09:25:56;;;;;;;2.05;1.83;;;7.50;45.50;;;;;;606076;235;26603;-63
2022/04/01 09:28:27;;;;;;;2.33;2.03;;;7.60;45.30;;;;;;607537;235;26573;-69
2022/04/01 09:31:00;;;;;;;3.12;1.80;;;7.50;44.60;;;;;;603739;238;26647;-70
2022/04/01 09:33:33;;;;;;;1.85;1.60;;;7.60;40.20;;;;;;602426;237;26802;-70
2022/04/01 09:36:03;;;;;;;2.47;2.28;;;7.70;45.20;;;;;;611649;234;26602;-71
2022/04/01 09:38:30;;;;;;;5.75;3.65;;;7.70;49.10;;;;;;607322;236;26588;-70
2022/04/01 09:40:57;;;;;;;2.70;2.17;;;7.70;40.90;;;;;;608977;236;26863;-68
2022/04/01 09:43:25;;;;;;;2.35;2.15;;;7.80;43.50;;;;;;610218;235;26626;-71
2022/04/01 09:45:52;;;;;;;6.87;2.45;;;7.60;48.90;;;;;;610231;236;26882;-71
2022/04/01 09:48:19;;;;;;;2.37;2.17;;;7.70;45.50;;;;;;610231;236;26593;-70
2022/04/01 09:50:54;;;;;;;5.68;3.20;;;7.80;41.30;;;;;;610033;235;26630;-71
2022/04/01 09:53:21;;;;;;;3.10;2.58;;;7.60;41.90;;;;;;609661;235;26652;-70
2022/04/01 09:55:48;;;;;;;3.35;2.33;;;7.70;47.10;;;;;;609747;236;27234;-71
2022/04/01 09:58:15;;;;;;;2.67;2.47;;;7.60;45.10;;;;;;609906;234;26585;-71
2022/04/01 10:00:42;;;;;;;6.72;2.80;;;7.60;47.30;;;;;;610038;235;26842;-71
2022/04/01 10:03:09;;;;;;;1.70;1.50;;;7.60;41.50;;;;;;609901;236;26844;-71
2022/04/01 10:05:37;;;;;;;5.22;2.95;;;7.70;47.80;;;;;;609814;236;26620;-71
2022/04/01 10:08:05;;;;;;;3.70;3.40;;;7.90;45.30;;;;;;609896;235;26569;-71
2022/04/01 10:10:33;;;;;;;4.30;2.70;;;7.90;44.70;;;;;;609861;236;26851;-71
2022/04/01 10:13:05;;;;;;;4.20;2.97;;;7.70;46.90;;;;;;609821;235;26599;-71
2022/04/01 10:15:32;;;;;;;4.07;3.60;;;7.80;41.80;;;;;;609832;235;26613;-71
2022/04/01 10:17:59;;;;;;;3.40;3.10;;;8.10;49.80;;;;;;609976;235;26843;-70
2022/04/01 10:20:30;;;;;;;3.75;3.45;;;8.20;46.10;;;;;;609903;235;26573;-70
2022/04/01 10:22:57;;;;;;;6.00;3.40;;;8.20;45.70;;;;;;610191;235;26581;-70
2022/04/01 10:25:26;;;;;;;4.70;3.60;;;7.90;40.00;;;;;;610305;236;26573;-71
2022/04/01 10:27:54;;;;;;;4.28;3.17;;;8.30;47.60;;;;;;610828;233;26552;-71
2022/04/01 10:30:22;;;;;;;6.05;3.25;;;8.50;45.60;;;;;;611591;234;26544;-71
2022/04/01 10:32:49;;;;;;;3.28;2.97;;;8.50;45.30;;;;;;611220;235;26611;-70
2022/04/01 10:35:24;;;;;;;3.53;2.90;;;8.60;43.90;;;;;;611004;235;26582;-71
2022/04/01 10:37:54;;;;;;;3.15;2.95;;;8.50;45.40;;;;;;610846;235;26790;-70
2022/04/01 10:40:21;;;;;;;3.30;3.00;;;8.60;42.00;;;;;;610411;235;26592;-70
2022/04/01 10:42:48;;;;;;;3.83;3.03;;;8.40;40.50;;;;;;610449;235;26930;-70
2022/04/01 10:45:24;;;;;;;5.28;2.30;;;8.30;40.70;;;;;;610390;235;26595;-70
2022/04/01 10:53:35;;;;;;;7.75;3.83;;;8.40;44.40;;;;;;609910;235;26686;-71
2022/04/01 10:56:15;;;;;;;6.62;3.45;;;8.40;44.50;;;;;;610238;235;26846;-71
2022/04/01 10:58:42;;;;;;;5.47;3.10;;;8.50;44.80;;;;;;610230;236;26834;-71
2022/04/01 11:01:10;;;;;;;4.97;3.12;;;8.40;46.50;;;;;;610199;235;26635;-71
2022/04/01 11:03:37;;;;;;;6.30;3.33;;;8.60;39.90;;;;;;610089;235;26640;-71
2022/04/01 11:06:22;;;;;;;6.72;3.72;;;8.90;39.20;;;;;;609910;236;26632;-71
2022/04/01 11:08:52;;;;;;;7.00;3.35;;;8.80;39.10;;;;;;610570;235;26797;-72
2022/04/01 11:11:20;;;;;;;3.35;3.05;;;8.90;46.00;;;;;;609975;235;26588;-71
2022/04/01 11:14:00;;;;;;;4.30;3.12;;;8.70;42.60;;;;;;609957;236;26858;-71
2022/04/01 11:16:28;;;;;;;4.07;3.40;;;8.70;42.40;;;;;;609890;235;26612;-71
2022/04/01 11:19:07;;;;;;;3.25;2.95;;;8.80;39.20;;;;;;609844;235;26822;-71
2022/04/01 11:21:34;;;;;;;4.53;3.42;;;8.70;40.90;;;;;;609971;235;26882;-71
2022/04/01 11:24:02;;;;;;;3.78;3.30;;;8.50;43.20;;;;;;609903;235;26634;-71
2022/04/01 11:26:39;;;;;;;3.42;2.83;;;8.70;41.40;;;;;;609903;235;26581;-71
2022/04/01 11:29:06;;;;;;;3.72;3.22;;;8.80;41.80;;;;;;609931;236;26581;-71
2022/04/01 11:31:34;;;;;;;2.70;2.50;;;8.40;43.80;;;;;;609313;236;26553;-71
2022/04/01 11:34:02;;;;;;;2.90;2.22;;;8.70;41.50;;;;;;609853;235;26588;-71
2022/04/01 11:36:29;;;;;;;3.72;2.70;;;8.70;41.20;;;;;;609921;236;26843;-71
2022/04/01 11:38:56;;;;;;;3.47;2.67;;;8.80;37.90;;;;;;610280;233;26590;-71
2022/04/01 11:41:23;;;;;;;3.90;3.20;;;8.80;37.10;;;;;;611365;235;26862;-71
2022/04/01 11:43:50;;;;;;;2.12;2.03;;;8.50;41.50;;;;;;610937;235;26629;-71
2022/04/01 11:46:18;;;;;;;2.67;2.40;;;8.50;41.60;;;;;;610815;235;26841;-72
2022/04/01 11:48:47;;;;;;;4.65;3.25;;;9.10;37.30;;;;;;610645;235;26584;-71
2022/04/01 11:51:14;;;;;;;2.05;1.92;;;9.20;41.90;;;;;;610764;235;26564;-70
2022/04/01 11:53:47;;;;;;;2.67;2.47;;;9.20;41.70;;;;;;610810;235;26812;-71
2022/04/01 11:56:12;;;;;;;2.83;2.62;;;9.20;40.50;;;;;;610520;235;26929;-71
2022/04/01 11:58:56;;;;;;;2.83;2.62;;;9.30;40.20;;;;;;610251;235;26603;-71
2022/04/01 12:01:23;;;;;;;2.20;2.00;;;9.40;42.00;;;;;;610230;235;27316;-71
2022/04/01 12:03:50;;;;;;;3.90;2.03;;;9.50;37.50;;;;;;610185;235;26644;-71
2022/04/01 12:08:52;;;;;;;2.67;2.42;;;9.30;37.40;;;;;;610251;235;26636;-71
2022/04/01 12:11:19;;;;;;;3.03;2.45;;;9.20;37.00;;;;;;610233;236;26700;-71
2022/04/01 12:13:48;;;;;;;2.65;2.45;;;9.80;41.10;;;;;;610258;235;26844;-71
2022/04/01 12:16:16;;;;;;;2.90;2.70;;;9.80;41.20;;;;;;609940;235;26876;-70
2022/04/01 12:18:44;;;;;;;3.15;2.85;;;10.00;34.40;;;;;;609963;236;26622;-70
2022/04/01 12:21:12;;;;;;;2.70;1.75;;;10.00;34.20;;;;;;609947;236;26611;-71
2022/04/01 12:23:39;;;;;;;3.08;2.47;;;9.90;39.50;;;;;;609569;236;26557;-70
2022/04/01 12:26:07;;;;;;;2.90;2.70;;;9.60;35.70;;;;;;609983;235;26605;-70
2022/04/01 12:28:35;;;;;;;2.12;1.80;;;9.70;39.50;;;;;;610030;236;26561;-70
2022/04/01 12:31:02;;;;;;;3.75;2.12;;;9.70;38.90;;;;;;609913;236;26597;-70
2022/04/01 12:33:31;;;;;;;3.53;2.75;;;9.90;33.70;;;;;;609977;235;26585;-70
2022/04/01 12:36:01;;;;;;;3.47;2.10;;;10.10;36.20;;;;;;609917;236;26612;-70
2022/04/01 12:38:28;;;;;;;1.90;1.70;;;10.30;33.40;;;;;;609916;235;26588;-71
2022/04/01 12:40:56;;;;;;;1.65;1.55;;;10.30;33.80;;;;;;609885;236;26793;-71
2022/04/01 12:43:32;;;;;;;3.08;1.83;;;10.20;36.00;;;;;;609876;235;26593;-70
2022/04/01 12:45:59;;;;;;;2.53;2.12;;;10.20;35.60;;;;;;609761;236;26614;-70
2022/04/01 12:48:28;;;;;;;2.87;2.60;;;10.20;37.30;;;;;;609949;235;26613;-71
2022/04/01 12:50:57;;;;;;;2.75;2.55;;;10.30;37.10;;;;;;610454;233;26589;-70
2022/04/01 12:53:23;;;;;;;3.03;2.67;;;10.30;37.00;;;;;;611254;234;26571;-70
2022/04/01 12:55:51;;;;;;;5.18;2.87;;;10.50;36.90;;;;;;610883;235;27004;-71
2022/04/01 12:58:20;;;;;;;3.10;1.42;;;10.80;34.60;;;;;;610704;235;26585;-71
2022/04/01 13:00:45;;;;;;;3.05;2.12;;;10.80;38.30;;;;;;610915;235;26807;-70
2022/04/01 13:03:12;;;;;;;2.42;2.25;;;10.80;36.80;;;;;;610846;236;26540;-71
2022/04/01 13:05:39;;;;;;;2.80;2.58;;;10.60;35.40;;;;;;610765;235;26871;-71
2022/04/01 13:08:09;;;;;;;3.20;2.62;;;10.60;36.90;;;;;;605233;235;26554;-71
2022/04/01 13:10:37;;;;;;;4.25;2.50;;;10.50;36.60;;;;;;602662;237;26558;-71
2022/04/01 13:13:05;;;;;;;5.30;2.50;;;10.60;34.70;;;;;;605435;236;26579;-71
2022/04/01 13:15:32;;;;;;;2.60;2.25;;;10.50;33.90;;;;;;600156;232;26613;-71